MSTRO01 LFOA-LFOA
Flight info
| Callsign | MSTRO01 |
|---|---|
| Flight time | 0h 58m |
| Altitude | 17500 |
| Route | DCT |
| Aircraft | PC21/L-VGDW/C |
Departure
| Time | 2026-05-05 12:20 |
|---|---|
| Airport | Avord (BA 702) Air Base (LFOA) |
Arrival
| Time | 2026-05-05 13:18 |
|---|---|
| Airport | Avord (BA 702) Air Base (LFOA) |
| Time | Latitude | Longitude | Altitude | Speed | Heading |
|---|---|---|---|---|---|
| 2026-05-05 12:01 | 47.04780 | 2.63291 | 563 ft | 0 kts | 25° |
| 2026-05-05 12:11 | 47.04789 | 2.63293 | 567 ft | 6 kts | 347° |
| 2026-05-05 12:12 | 47.04832 | 2.63235 | 565 ft | 8 kts | 297° |
| 2026-05-05 12:12 | 47.04861 | 2.63143 | 568 ft | 5 kts | 291° |
| 2026-05-05 12:12 | 47.04864 | 2.63132 | 571 ft | 1 kts | 294° |
| 2026-05-05 12:12 | 47.04898 | 2.63023 | 572 ft | 12 kts | 296° |
| 2026-05-05 12:13 | 47.04910 | 2.62898 | 571 ft | 15 kts | 258° |
| 2026-05-05 12:13 | 47.04890 | 2.62740 | 570 ft | 15 kts | 260° |
| 2026-05-05 12:13 | 47.04863 | 2.62517 | 569 ft | 21 kts | 261° |
| 2026-05-05 12:13 | 47.04841 | 2.62333 | 570 ft | 20 kts | 259° |
| 2026-05-05 12:14 | 47.04818 | 2.62141 | 566 ft | 17 kts | 259° |
| 2026-05-05 12:14 | 47.04791 | 2.61922 | 563 ft | 21 kts | 260° |
| 2026-05-05 12:14 | 47.04766 | 2.61711 | 559 ft | 25 kts | 261° |
| 2026-05-05 12:14 | 47.04740 | 2.61486 | 556 ft | 20 kts | 261° |
| 2026-05-05 12:15 | 47.04727 | 2.61338 | 552 ft | 2 kts | 269° |
| 2026-05-05 12:15 | 47.04727 | 2.61336 | 551 ft | 0 kts | 269° |
| 2026-05-05 12:18 | 47.04727 | 2.61328 | 551 ft | 8 kts | 269° |
| 2026-05-05 12:18 | 47.04793 | 2.61246 | 548 ft | 15 kts | 6° |
| 2026-05-05 12:18 | 47.04850 | 2.61361 | 554 ft | 16 kts | 60° |
| 2026-05-05 12:19 | 47.04858 | 2.61381 | 557 ft | 0 kts | 60° |
| 2026-05-05 12:19 | 47.04859 | 2.61384 | 558 ft | 6 kts | 64° |
| 2026-05-05 12:19 | 47.04992 | 2.61720 | 559 ft | 72 kts | 60° |
| 2026-05-05 12:19 | 47.05349 | 2.62639 | 572 ft | 129 kts | 60° |
| 2026-05-05 12:20 | 47.05843 | 2.63919 | 834 ft | 160 kts | 60° |
| 2026-05-05 12:20 | 47.06464 | 2.65509 | 1243 ft | 192 kts | 60° |
| 2026-05-05 12:20 | 47.06996 | 2.67383 | 1987 ft | 205 kts | 71° |
| 2026-05-05 12:20 | 47.07458 | 2.69383 | 2887 ft | 207 kts | 71° |
| 2026-05-05 12:21 | 47.07948 | 2.71406 | 3780 ft | 212 kts | 69° |
| 2026-05-05 12:21 | 47.08412 | 2.73446 | 4704 ft | 211 kts | 80° |
| 2026-05-05 12:21 | 47.08233 | 2.75573 | 5503 ft | 214 kts | 116° |
| 2026-05-05 12:21 | 47.07235 | 2.77141 | 6375 ft | 212 kts | 145° |
| 2026-05-05 12:22 | 47.06009 | 2.78308 | 7291 ft | 210 kts | 150° |
| 2026-05-05 12:22 | 47.04678 | 2.79387 | 7596 ft | 239 kts | 152° |
| 2026-05-05 12:22 | 47.03061 | 2.80470 | 7611 ft | 268 kts | 159° |
| 2026-05-05 12:22 | 47.01278 | 2.81518 | 7642 ft | 284 kts | 158° |
| 2026-05-05 12:23 | 46.99409 | 2.82553 | 7673 ft | 288 kts | 165° |
| 2026-05-05 12:23 | 46.97417 | 2.82850 | 7690 ft | 290 kts | 183° |
| 2026-05-05 12:23 | 46.95387 | 2.82724 | 7571 ft | 295 kts | 182° |
| 2026-05-05 12:23 | 46.93323 | 2.82604 | 7483 ft | 298 kts | 182° |
| 2026-05-05 12:24 | 46.91253 | 2.82482 | 7476 ft | 297 kts | 182° |
| 2026-05-05 12:24 | 46.89195 | 2.82357 | 7483 ft | 295 kts | 183° |
| 2026-05-05 12:24 | 46.87161 | 2.82195 | 7575 ft | 289 kts | 184° |
| 2026-05-05 12:24 | 46.85231 | 2.82023 | 8145 ft | 269 kts | 183° |
| 2026-05-05 12:25 | 46.83391 | 2.81902 | 8729 ft | 263 kts | 183° |
| 2026-05-05 12:25 | 46.81568 | 2.81758 | 9409 ft | 261 kts | 184° |
| 2026-05-05 12:25 | 46.79736 | 2.81592 | 9902 ft | 267 kts | 184° |
| 2026-05-05 12:25 | 46.77853 | 2.81433 | 10322 ft | 272 kts | 184° |
| 2026-05-05 12:26 | 46.75964 | 2.81277 | 10873 ft | 271 kts | 183° |
| 2026-05-05 12:26 | 46.74089 | 2.81133 | 11462 ft | 270 kts | 183° |
| 2026-05-05 12:26 | 46.72212 | 2.81001 | 12002 ft | 270 kts | 183° |
| 2026-05-05 12:26 | 46.70330 | 2.80876 | 12433 ft | 276 kts | 183° |
| 2026-05-05 12:27 | 46.68364 | 2.80755 | 12508 ft | 288 kts | 182° |
| 2026-05-05 12:27 | 46.66334 | 2.80626 | 12521 ft | 296 kts | 183° |
| 2026-05-05 12:27 | 46.64258 | 2.80487 | 12592 ft | 300 kts | 183° |
| 2026-05-05 12:27 | 46.62191 | 2.80080 | 12612 ft | 304 kts | 205° |
| 2026-05-05 12:28 | 46.60664 | 2.77991 | 12533 ft | 310 kts | 242° |
| 2026-05-05 12:28 | 46.59751 | 2.75182 | 12550 ft | 312 kts | 245° |
| 2026-05-05 12:28 | 46.58835 | 2.72281 | 12353 ft | 317 kts | 248° |
| 2026-05-05 12:28 | 46.58653 | 2.69089 | 10263 ft | 332 kts | 281° |
| 2026-05-05 12:29 | 46.59601 | 2.65978 | 8533 ft | 336 kts | 303° |
| 2026-05-05 12:29 | 46.61121 | 2.63479 | 7345 ft | 329 kts | 319° |
| 2026-05-05 12:29 | 46.62963 | 2.61691 | 7209 ft | 305 kts | 328° |
| 2026-05-05 12:29 | 46.64750 | 2.60137 | 7023 ft | 297 kts | 329° |
| 2026-05-05 12:30 | 46.66452 | 2.58727 | 7713 ft | 264 kts | 330° |
| 2026-05-05 12:30 | 46.67656 | 2.56983 | 8737 ft | 235 kts | 297° |
| 2026-05-05 12:30 | 46.67897 | 2.54658 | 9481 ft | 243 kts | 259° |
| 2026-05-05 12:30 | 46.67079 | 2.52479 | 10039 ft | 255 kts | 222° |
| 2026-05-05 12:31 | 46.66068 | 2.51585 | 10395 ft | 262 kts | 200° |
| 2026-05-05 12:31 | 46.64283 | 2.51511 | 11265 ft | 255 kts | 163° |
| 2026-05-05 12:31 | 46.62843 | 2.52934 | 12221 ft | 254 kts | 128° |
| 2026-05-05 12:31 | 46.62338 | 2.55330 | 13132 ft | 255 kts | 82° |
| 2026-05-05 12:32 | 46.63113 | 2.57684 | 13555 ft | 275 kts | 46° |
| 2026-05-05 12:32 | 46.64826 | 2.59121 | 13592 ft | 296 kts | 14° |
| 2026-05-05 12:32 | 46.67590 | 2.58926 | 13593 ft | 313 kts | 341° |
| 2026-05-05 12:32 | 46.68893 | 2.57944 | 13649 ft | 313 kts | 324° |
| 2026-05-05 12:33 | 46.70650 | 2.56040 | 13623 ft | 317 kts | 323° |
| 2026-05-05 12:33 | 46.72428 | 2.54105 | 13550 ft | 319 kts | 323° |
| 2026-05-05 12:33 | 46.74225 | 2.52187 | 13448 ft | 320 kts | 323° |
| 2026-05-05 12:33 | 46.76018 | 2.50265 | 13450 ft | 319 kts | 323° |
| 2026-05-05 12:34 | 46.77779 | 2.48381 | 13396 ft | 318 kts | 323° |
| 2026-05-05 12:34 | 46.79656 | 2.46336 | 11234 ft | 352 kts | 321° |
| 2026-05-05 12:34 | 46.80534 | 2.45238 | 15913 ft | 9 kts | 163° |
| 2026-05-05 12:34 | 46.80171 | 2.45553 | 16633 ft | 74 kts | 151° |
| 2026-05-05 12:35 | 46.81064 | 2.44750 | 11603 ft | 353 kts | 326° |
| 2026-05-05 12:35 | 46.83015 | 2.42905 | 11572 ft | 323 kts | 327° |
| 2026-05-05 12:35 | 46.84902 | 2.41140 | 11118 ft | 324 kts | 327° |
| 2026-05-05 12:35 | 46.86741 | 2.39416 | 11282 ft | 303 kts | 327° |
| 2026-05-05 12:36 | 46.88451 | 2.37849 | 11793 ft | 274 kts | 328° |
| 2026-05-05 12:36 | 46.90018 | 2.36363 | 12429 ft | 260 kts | 321° |
| 2026-05-05 12:36 | 46.91242 | 2.34475 | 12547 ft | 274 kts | 312° |
| 2026-05-05 12:36 | 46.92586 | 2.32238 | 12454 ft | 304 kts | 309° |
| 2026-05-05 12:37 | 46.94029 | 2.29842 | 12457 ft | 321 kts | 310° |
| 2026-05-05 12:37 | 46.95440 | 2.27277 | 12543 ft | 323 kts | 302° |
| 2026-05-05 12:37 | 46.96178 | 2.24371 | 12534 ft | 304 kts | 273° |
| 2026-05-05 12:37 | 46.95669 | 2.21307 | 12465 ft | 323 kts | 240° |
| 2026-05-05 12:38 | 46.94128 | 2.18945 | 12374 ft | 321 kts | 213° |
| 2026-05-05 12:38 | 46.92048 | 2.17889 | 12470 ft | 327 kts | 189° |
| 2026-05-05 12:38 | 46.89835 | 2.17618 | 12494 ft | 309 kts | 184° |
| 2026-05-05 12:38 | 46.87709 | 2.17456 | 12546 ft | 303 kts | 183° |
| 2026-05-05 12:39 | 46.85636 | 2.17269 | 12518 ft | 296 kts | 185° |
| 2026-05-05 12:39 | 46.83590 | 2.17027 | 12526 ft | 295 kts | 185° |
| 2026-05-05 12:39 | 46.81543 | 2.16747 | 12535 ft | 297 kts | 186° |
| 2026-05-05 12:39 | 46.79488 | 2.16431 | 12619 ft | 297 kts | 186° |
| 2026-05-05 12:40 | 46.77302 | 2.16103 | 10959 ft | 337 kts | 186° |
| 2026-05-05 12:40 | 46.74945 | 2.15811 | 10415 ft | 278 kts | 183° |
| 2026-05-05 12:40 | 46.74146 | 2.15810 | 15109 ft | 5 kts | 36° |
| 2026-05-05 12:40 | 46.74337 | 2.15883 | 15281 ft | 54 kts | 17° |
| 2026-05-05 12:41 | 46.75476 | 2.15526 | 11737 ft | 282 kts | 298° |
| 2026-05-05 12:41 | 46.74336 | 2.13883 | 11877 ft | 282 kts | 184° |
| 2026-05-05 12:41 | 46.72368 | 2.13232 | 11917 ft | 301 kts | 202° |
| 2026-05-05 12:41 | 46.70451 | 2.11998 | 12411 ft | 305 kts | 205° |
| 2026-05-05 12:42 | 46.68459 | 2.10692 | 12451 ft | 322 kts | 204° |
| 2026-05-05 12:42 | 46.66369 | 2.09434 | 12541 ft | 328 kts | 202° |
| 2026-05-05 12:42 | 46.64221 | 2.08257 | 12526 ft | 329 kts | 199° |
| 2026-05-05 12:42 | 46.61985 | 2.07759 | 12546 ft | 330 kts | 172° |
| 2026-05-05 12:43 | 46.59863 | 2.08900 | 12447 ft | 331 kts | 147° |
| 2026-05-05 12:43 | 46.58621 | 2.11579 | 12418 ft | 326 kts | 99° |
| 2026-05-05 12:43 | 46.58755 | 2.14749 | 12386 ft | 310 kts | 83° |
| 2026-05-05 12:43 | 46.59043 | 2.17806 | 12424 ft | 295 kts | 82° |
| 2026-05-05 12:44 | 46.59321 | 2.20742 | 12399 ft | 298 kts | 82° |
| 2026-05-05 12:44 | 46.59618 | 2.23779 | 12333 ft | 310 kts | 82° |
| 2026-05-05 12:44 | 46.59941 | 2.26891 | 12334 ft | 311 kts | 81° |
| 2026-05-05 12:44 | 46.60239 | 2.29974 | 12494 ft | 306 kts | 83° |
| 2026-05-05 12:45 | 46.60434 | 2.33066 | 12447 ft | 308 kts | 85° |
| 2026-05-05 12:45 | 46.60652 | 2.36160 | 12462 ft | 308 kts | 75° |
| 2026-05-05 12:45 | 46.61675 | 2.38850 | 12469 ft | 308 kts | 46° |
| 2026-05-05 12:45 | 46.63441 | 2.40550 | 12514 ft | 305 kts | 19° |
| 2026-05-05 12:46 | 46.65530 | 2.40912 | 12538 ft | 306 kts | 353° |
| 2026-05-05 12:46 | 46.67528 | 2.39899 | 12612 ft | 307 kts | 332° |
| 2026-05-05 12:46 | 46.69434 | 2.38447 | 12630 ft | 310 kts | 333° |
| 2026-05-05 12:46 | 46.71367 | 2.37029 | 12628 ft | 314 kts | 333° |
| 2026-05-05 12:47 | 46.73367 | 2.35560 | 10781 ft | 342 kts | 333° |
| 2026-05-05 12:47 | 46.75005 | 2.34250 | 12964 ft | 43 kts | 311° |
| 2026-05-05 12:47 | 46.74468 | 2.34700 | 14720 ft | 115 kts | 144° |
| 2026-05-05 12:47 | 46.75568 | 2.34051 | 10966 ft | 325 kts | 334° |
| 2026-05-05 12:48 | 46.77506 | 2.32711 | 11356 ft | 299 kts | 334° |
| 2026-05-05 12:48 | 46.79331 | 2.31514 | 12006 ft | 276 kts | 336° |
| 2026-05-05 12:48 | 46.81086 | 2.30431 | 12583 ft | 279 kts | 337° |
| 2026-05-05 12:48 | 46.82959 | 2.29312 | 12547 ft | 298 kts | 337° |
| 2026-05-05 12:49 | 46.84981 | 2.28135 | 10558 ft | 337 kts | 339° |
| 2026-05-05 12:49 | 46.86685 | 2.27194 | 12798 ft | 41 kts | 1° |
| 2026-05-05 12:49 | 46.86234 | 2.27719 | 14780 ft | 119 kts | 149° |
| 2026-05-05 12:49 | 46.87154 | 2.26937 | 11319 ft | 321 kts | 331° |
| 2026-05-05 12:50 | 46.89068 | 2.25261 | 11411 ft | 323 kts | 316° |
| 2026-05-05 12:50 | 46.90094 | 2.22402 | 11401 ft | 321 kts | 281° |
| 2026-05-05 12:50 | 46.89984 | 2.19193 | 11542 ft | 317 kts | 254° |
| 2026-05-05 12:50 | 46.88798 | 2.16535 | 11530 ft | 317 kts | 218° |
| 2026-05-05 12:51 | 46.86988 | 2.14753 | 11509 ft | 311 kts | 214° |
| 2026-05-05 12:51 | 46.85321 | 2.13240 | 10376 ft | 59 kts | 111° |
| 2026-05-05 12:51 | 46.86888 | 2.14992 | 8693 ft | 274 kts | 37° |
| 2026-05-05 12:51 | 46.86673 | 2.16750 | 9834 ft | 224 kts | 170° |
| 2026-05-05 12:52 | 46.86308 | 2.14561 | 8551 ft | 289 kts | 306° |
| 2026-05-05 12:52 | 46.87161 | 2.15877 | 9290 ft | 213 kts | 122° |
| 2026-05-05 12:52 | 46.86383 | 2.16484 | 12069 ft | 48 kts | 188° |
| 2026-05-05 12:52 | 46.86051 | 2.16483 | 11808 ft | 117 kts | 183° |
| 2026-05-05 12:53 | 46.84728 | 2.16073 | 11006 ft | 225 kts | 193° |
| 2026-05-05 12:53 | 46.83043 | 2.15470 | 10849 ft | 271 kts | 194° |
| 2026-05-05 12:53 | 46.81150 | 2.14683 | 11009 ft | 294 kts | 198° |
| 2026-05-05 12:53 | 46.79493 | 2.15375 | 12451 ft | 248 kts | 122° |
| 2026-05-05 12:54 | 46.79966 | 2.17183 | 9753 ft | 148 kts | 356° |
| 2026-05-05 12:54 | 46.81754 | 2.17478 | 9234 ft | 18 kts | 246° |
| 2026-05-05 12:54 | 46.81659 | 2.17270 | 12460 ft | 24 kts | 289° |
| 2026-05-05 12:55 | 46.81436 | 2.16543 | 10140 ft | 230 kts | 201° |
| 2026-05-05 12:55 | 46.80559 | 2.15535 | 9856 ft | 242 kts | 330° |
| 2026-05-05 12:55 | 46.81741 | 2.16905 | 8860 ft | 268 kts | 105° |
| 2026-05-05 12:55 | 46.81585 | 2.15973 | 7325 ft | 277 kts | 343° |
| 2026-05-05 12:56 | 46.82321 | 2.16874 | 10441 ft | 150 kts | 121° |
| 2026-05-05 12:56 | 46.81429 | 2.17520 | 10184 ft | 174 kts | 226° |
| 2026-05-05 12:56 | 46.82312 | 2.15762 | 7597 ft | 331 kts | 2° |
| 2026-05-05 12:56 | 46.83510 | 2.18088 | 7816 ft | 309 kts | 104° |
| 2026-05-05 12:57 | 46.82019 | 2.19371 | 9281 ft | 251 kts | 188° |
| 2026-05-05 12:57 | 46.80790 | 2.18127 | 11080 ft | 218 kts | 230° |
| 2026-05-05 12:57 | 46.79653 | 2.16217 | 8381 ft | 309 kts | 230° |
| 2026-05-05 12:57 | 46.78799 | 2.15344 | 10903 ft | 146 kts | 123° |
| 2026-05-05 12:58 | 46.79250 | 2.14667 | 7742 ft | 268 kts | 300° |
| 2026-05-05 12:58 | 46.78898 | 2.12919 | 7980 ft | 230 kts | 152° |
| 2026-05-05 12:58 | 46.79222 | 2.14218 | 8018 ft | 210 kts | 348° |
| 2026-05-05 12:58 | 46.79007 | 2.13221 | 7534 ft | 219 kts | 141° |
| 2026-05-05 12:59 | 46.79614 | 2.14098 | 7143 ft | 202 kts | 285° |
| 2026-05-05 12:59 | 46.79006 | 2.13776 | 7619 ft | 136 kts | 81° |
| 2026-05-05 12:59 | 46.79847 | 2.13851 | 6381 ft | 180 kts | 336° |
| 2026-05-05 13:00 | 46.81889 | 2.16104 | 7135 ft | 158 kts | 47° |
| 2026-05-05 13:00 | 46.82677 | 2.17384 | 7710 ft | 177 kts | 49° |
| 2026-05-05 13:01 | 46.84832 | 2.22855 | 10075 ft | 236 kts | 70° |
| 2026-05-05 13:01 | 46.85380 | 2.25351 | 10287 ft | 277 kts | 78° |
| 2026-05-05 13:01 | 46.85582 | 2.28243 | 10519 ft | 293 kts | 86° |
| 2026-05-05 13:01 | 46.85542 | 2.31445 | 9715 ft | 317 kts | 87° |
| 2026-05-05 13:02 | 46.85628 | 2.34425 | 9715 ft | 283 kts | 89° |
| 2026-05-05 13:02 | 46.85660 | 2.37244 | 9696 ft | 283 kts | 89° |
| 2026-05-05 13:02 | 46.85663 | 2.40162 | 9539 ft | 288 kts | 90° |
| 2026-05-05 13:02 | 46.85614 | 2.43076 | 9573 ft | 284 kts | 93° |
| 2026-05-05 13:03 | 46.85509 | 2.45957 | 9581 ft | 283 kts | 92° |
| 2026-05-05 13:03 | 46.85448 | 2.48819 | 9607 ft | 281 kts | 91° |
| 2026-05-05 13:03 | 46.85585 | 2.51662 | 9576 ft | 281 kts | 78° |
| 2026-05-05 13:03 | 46.86200 | 2.54355 | 9598 ft | 279 kts | 64° |
| 2026-05-05 13:04 | 46.87319 | 2.56676 | 9559 ft | 281 kts | 49° |
| 2026-05-05 13:04 | 46.88596 | 2.58837 | 9565 ft | 280 kts | 50° |
| 2026-05-05 13:04 | 46.89827 | 2.61038 | 9566 ft | 280 kts | 51° |
| 2026-05-05 13:04 | 46.91044 | 2.63249 | 9584 ft | 279 kts | 51° |
| 2026-05-05 13:05 | 46.92289 | 2.65509 | 8888 ft | 301 kts | 51° |
| 2026-05-05 13:05 | 46.93638 | 2.67973 | 8149 ft | 314 kts | 51° |
| 2026-05-05 13:05 | 46.95000 | 2.70489 | 7489 ft | 316 kts | 51° |
| 2026-05-05 13:05 | 46.96359 | 2.73017 | 6933 ft | 315 kts | 51° |
| 2026-05-05 13:06 | 46.97714 | 2.75544 | 6196 ft | 319 kts | 52° |
| 2026-05-05 13:06 | 46.99076 | 2.78092 | 5689 ft | 313 kts | 52° |
| 2026-05-05 13:06 | 47.00514 | 2.80412 | 5078 ft | 307 kts | 38° |
| 2026-05-05 13:06 | 47.02423 | 2.81701 | 4426 ft | 305 kts | 9° |
| 2026-05-05 13:07 | 47.04515 | 2.81475 | 3648 ft | 305 kts | 343° |
| 2026-05-05 13:07 | 47.06396 | 2.80224 | 3257 ft | 294 kts | 328° |
| 2026-05-05 13:07 | 47.07915 | 2.78331 | 2951 ft | 283 kts | 309° |
| 2026-05-05 13:07 | 47.08977 | 2.76000 | 2724 ft | 262 kts | 300° |
| 2026-05-05 13:08 | 47.09543 | 2.73585 | 2173 ft | 242 kts | 265° |
| 2026-05-05 13:08 | 47.08922 | 2.71408 | 1697 ft | 227 kts | 238° |
| 2026-05-05 13:08 | 47.08121 | 2.69510 | 1309 ft | 206 kts | 238° |
| 2026-05-05 13:08 | 47.07456 | 2.67902 | 1007 ft | 162 kts | 240° |
| 2026-05-05 13:09 | 47.06940 | 2.66629 | 814 ft | 137 kts | 240° |
| 2026-05-05 13:09 | 47.06463 | 2.65418 | 643 ft | 137 kts | 240° |
| 2026-05-05 13:09 | 47.06003 | 2.64243 | 597 ft | 136 kts | 240° |
| 2026-05-05 13:09 | 47.05487 | 2.62917 | 606 ft | 175 kts | 240° |
| 2026-05-05 13:10 | 47.05210 | 2.61146 | 977 ft | 189 kts | 276° |
| 2026-05-05 13:10 | 47.05867 | 2.59485 | 1277 ft | 200 kts | 326° |
| 2026-05-05 13:10 | 47.07210 | 2.59116 | 1608 ft | 204 kts | 12° |
| 2026-05-05 13:10 | 47.08457 | 2.60163 | 1782 ft | 213 kts | 39° |
| 2026-05-05 13:11 | 47.09461 | 2.61768 | 1833 ft | 222 kts | 57° |
| 2026-05-05 13:11 | 47.10303 | 2.63866 | 1913 ft | 252 kts | 60° |
| 2026-05-05 13:11 | 47.11157 | 2.66185 | 1953 ft | 258 kts | 62° |
| 2026-05-05 13:11 | 47.11971 | 2.68492 | 1960 ft | 252 kts | 63° |
| 2026-05-05 13:12 | 47.12541 | 2.70866 | 2000 ft | 244 kts | 94° |
| 2026-05-05 13:12 | 47.11635 | 2.72777 | 2046 ft | 234 kts | 157° |
| 2026-05-05 13:12 | 47.10112 | 2.72663 | 1863 ft | 224 kts | 210° |
| 2026-05-05 13:12 | 47.09011 | 2.71279 | 1614 ft | 194 kts | 229° |
| 2026-05-05 13:13 | 47.08301 | 2.69810 | 1472 ft | 155 kts | 238° |
| 2026-05-05 13:13 | 47.07759 | 2.68529 | 1280 ft | 144 kts | 238° |
| 2026-05-05 13:13 | 47.07232 | 2.67271 | 1047 ft | 146 kts | 239° |
| 2026-05-05 13:13 | 47.06701 | 2.66003 | 783 ft | 146 kts | 238° |
| 2026-05-05 13:14 | 47.06193 | 2.64727 | 577 ft | 139 kts | 240° |
| 2026-05-05 13:14 | 47.05706 | 2.63478 | 651 ft | 155 kts | 241° |
| 2026-05-05 13:14 | 47.05144 | 2.61884 | 793 ft | 193 kts | 257° |
| 2026-05-05 13:14 | 47.05548 | 2.60034 | 1268 ft | 208 kts | 316° |
| 2026-05-05 13:15 | 47.06938 | 2.59528 | 1651 ft | 223 kts | 15° |
| 2026-05-05 13:15 | 47.08212 | 2.60813 | 2091 ft | 231 kts | 57° |
| 2026-05-05 13:15 | 47.09031 | 2.62931 | 2195 ft | 245 kts | 58° |
| 2026-05-05 13:15 | 47.09915 | 2.65065 | 2166 ft | 244 kts | 58° |
| 2026-05-05 13:16 | 47.10815 | 2.67157 | 2139 ft | 236 kts | 59° |
| 2026-05-05 13:16 | 47.10908 | 2.69335 | 1898 ft | 216 kts | 116° |
| 2026-05-05 13:16 | 47.09899 | 2.70752 | 1415 ft | 194 kts | 160° |
| 2026-05-05 13:16 | 47.08768 | 2.70480 | 1282 ft | 151 kts | 223° |
| 2026-05-05 13:17 | 47.08082 | 2.69358 | 1205 ft | 146 kts | 233° |
| 2026-05-05 13:17 | 47.07533 | 2.68096 | 1035 ft | 147 kts | 239° |
| 2026-05-05 13:17 | 47.07017 | 2.66822 | 840 ft | 147 kts | 239° |
| 2026-05-05 13:17 | 47.06512 | 2.65552 | 658 ft | 139 kts | 240° |
| 2026-05-05 13:18 | 47.06068 | 2.64410 | 573 ft | 107 kts | 237° |
| 2026-05-05 13:18 | 47.05856 | 2.63877 | 575 ft | 79 kts | 242° |
| 2026-05-05 13:18 | 47.05574 | 2.63134 | 568 ft | 49 kts | 238° |
| 2026-05-05 13:18 | 47.05427 | 2.62760 | 570 ft | 37 kts | 240° |
| 2026-05-05 13:19 | 47.05358 | 2.62576 | 566 ft | 22 kts | 240° |
| 2026-05-05 13:19 | 47.05281 | 2.62489 | 562 ft | 18 kts | 164° |
| 2026-05-05 13:19 | 47.05144 | 2.62586 | 567 ft | 24 kts | 152° |
| 2026-05-05 13:19 | 47.05030 | 2.62722 | 572 ft | 23 kts | 136° |
| 2026-05-05 13:20 | 47.04920 | 2.62891 | 575 ft | 20 kts | 131° |
| 2026-05-05 13:20 | 47.04895 | 2.63018 | 573 ft | 12 kts | 116° |
| 2026-05-05 13:20 | 47.04849 | 2.63166 | 568 ft | 14 kts | 122° |
| 2026-05-05 13:20 | 47.04793 | 2.63186 | 563 ft | 9 kts | 146° |
| 2026-05-05 13:21 | 47.04766 | 2.63260 | 564 ft | 4 kts | 123° |
| 2026-05-05 13:21 | 47.04764 | 2.63281 | 563 ft | 2 kts | 31° |
| 2026-05-05 13:21 | 47.04779 | 2.63290 | 563 ft | 0 kts | 26° |